Time;durP1;ratioP1;P1;durP2;ratioP2;P2;SDS_P1;SDS_P2;PMS_P1;PMS_P2;Temp;Humidity;BMP_temperature;BMP_pressure;BME280_temperature;BME280_humidity;BME280_pressure;Samples;Min_cycle;Max_cycle;Signal;HPM_P1;HPM_P2
2022/07/23 00:00:18;;;;;;;9.90;5.67;;;;;;;23.44;46.65;97264.53;4784989;29;20239;-74
2022/07/23 00:02:45;;;;;;;11.43;5.47;;;;;;;23.53;46.02;97249.63;4785609;29;21068;-74
2022/07/23 00:05:12;;;;;;;7.80;4.97;;;;;;;23.47;46.77;97258.97;4784679;29;20879;-71
2022/07/23 00:07:40;;;;;;;6.67;4.57;;;;;;;23.42;46.33;97258.56;4785681;29;20305;-73
2022/07/23 00:10:07;;;;;;;8.23;4.03;;;;;;;23.43;44.97;97262.88;4784897;29;20254;-74
2022/07/23 00:12:35;;;;;;;7.13;4.23;;;;;;;23.32;45.07;97255.09;4768972;30;20566;-73
2022/07/23 00:15:04;;;;;;;7.13;4.10;;;;;;;23.24;45.82;97253.16;4785173;29;20211;-73
2022/07/23 00:17:31;;;;;;;8.13;4.23;;;;;;;23.20;45.74;97250.94;4784534;29;20326;-74
2022/07/23 00:19:58;;;;;;;8.53;5.63;;;;;;;23.09;46.48;97256.38;4785459;30;20207;-71
2022/07/23 00:22:27;;;;;;;9.10;5.13;;;;;;;23.10;46.31;97265.97;4788873;29;20312;-74
2022/07/23 00:24:55;;;;;;;8.80;5.57;;;;;;;22.88;47.21;97240.69;4803468;29;20208;-71
2022/07/23 00:27:42;;;;;;;6.27;5.30;;;;;;;22.83;47.68;97263.22;4802715;29;20254;-71
2022/07/23 00:30:10;;;;;;;9.27;5.13;;;;;;;22.52;47.71;97250.13;4801049;29;20209;-71
2022/07/23 00:32:46;;;;;;;8.57;5.00;;;;;;;22.08;49.01;97249.78;4803010;29;20250;-71
2022/07/23 00:35:23;;;;;;;6.43;4.60;;;;;;;21.67;50.17;97250.75;4802001;29;20318;-72
2022/07/23 00:37:50;;;;;;;6.10;4.97;;;;;;;21.37;50.85;97240.22;4786742;29;20687;-72
2022/07/23 00:40:17;;;;;;;9.97;5.17;;;;;;;21.22;50.85;97246.78;4802566;29;20200;-74
2022/07/23 00:42:44;;;;;;;7.77;4.37;;;;;;;21.16;51.92;97240.25;4802466;29;20220;-73
2022/07/23 00:45:12;;;;;;;9.90;5.70;;;;;;;20.82;54.07;97242.22;4802529;29;20260;-73
2022/07/23 00:47:38;;;;;;;9.97;5.50;;;;;;;20.77;54.47;97247.03;4801803;29;20715;-72
2022/07/23 00:50:08;;;;;;;9.17;4.53;;;;;;;20.77;54.66;97243.56;4801684;29;20206;-72
2022/07/23 00:52:36;;;;;;;6.30;4.20;;;;;;;20.87;54.65;97245.31;4800496;29;20211;-72
2022/07/23 00:55:05;;;;;;;7.00;4.63;;;;;;;21.04;54.55;97242.13;4802551;29;20304;-72
2022/07/23 00:57:33;;;;;;;7.70;4.53;;;;;;;21.33;54.32;97237.00;4801824;29;20704;-71
2022/07/23 01:00:00;;;;;;;7.73;4.60;;;;;;;21.47;54.44;97227.94;4790644;29;21433;-71
2022/07/23 01:02:28;;;;;;;6.60;4.50;;;;;;;21.47;53.71;97231.41;4802168;29;20297;-72
2022/07/23 01:04:55;;;;;;;9.07;4.40;;;;;;;21.77;53.00;97236.63;4801407;29;20272;-71
2022/07/23 01:07:23;;;;;;;7.17;4.53;;;;;;;21.86;52.43;97237.69;4786131;29;20789;-71
2022/07/23 01:09:51;;;;;;;6.93;5.20;;;;;;;21.74;52.30;97238.72;4784890;29;20691;-72
2022/07/23 01:12:18;;;;;;;8.60;5.73;;;;;;;21.67;52.62;97237.56;4802502;29;20680;-71
2022/07/23 01:14:45;;;;;;;8.40;5.40;;;;;;;21.54;52.49;97234.31;4785323;29;20204;-73
2022/07/23 01:17:12;;;;;;;10.87;5.73;;;;;;;21.57;52.10;97241.97;4785543;29;20247;-72
2022/07/23 01:19:39;;;;;;;9.30;5.43;;;;;;;21.68;51.64;97241.84;4801893;29;20204;-74
2022/07/23 01:22:08;;;;;;;8.37;5.70;;;;;;;21.57;52.21;97234.91;4801242;29;20235;-69
2022/07/23 01:24:35;;;;;;;6.93;5.43;;;;;;;21.47;52.07;97230.56;4802431;29;20263;-71
2022/07/23 01:27:05;;;;;;;6.97;5.40;;;;;;;21.57;52.09;97229.63;4784735;29;20716;-73
2022/07/23 01:29:35;;;;;;;11.93;6.00;;;;;;;21.54;52.10;97221.97;4785733;29;20729;-72
2022/07/23 01:32:07;;;;;;;11.50;5.93;;;;;;;21.66;51.86;97223.53;4785350;29;20212;-72
2022/07/23 01:34:34;;;;;;;9.57;5.33;;;;;;;21.67;51.48;97214.69;4785287;29;20224;-70
2022/07/23 01:37:01;;;;;;;11.00;6.23;;;;;;;21.61;51.77;97230.19;4785590;29;20211;-72
2022/07/23 01:39:29;;;;;;;7.90;6.13;;;;;;;21.51;52.12;97234.59;4784758;29;20215;-72
2022/07/23 01:41:57;;;;;;;10.57;5.73;;;;;;;21.38;52.16;97224.28;4785719;29;20690;-72
2022/07/23 01:44:25;;;;;;;6.70;5.03;;;;;;;21.01;53.04;97223.06;4784641;29;20235;-71
2022/07/23 01:46:52;;;;;;;8.00;5.17;;;;;;;20.93;53.50;97215.84;4785411;29;20776;-72
2022/07/23 01:49:21;;;;;;;9.87;5.73;;;;;;;21.13;53.18;97221.22;4785122;29;20222;-71
2022/07/23 01:52:00;;;;;;;9.33;6.80;;;;;;;21.08;53.07;97219.81;4800958;29;20886;-72
2022/07/23 01:54:33;;;;;;;10.13;6.83;;;;;;;21.16;53.01;97218.34;4800513;29;20208;-72
2022/07/23 01:57:03;;;;;;;8.77;6.70;;;;;;;20.89;53.24;97214.44;4799513;29;20295;-73
2022/07/23 01:59:31;;;;;;;10.07;6.93;;;;;;;20.73;53.85;97214.00;4801950;29;20207;-73
2022/07/23 02:01:58;;;;;;;13.13;6.47;;;;;;;20.65;54.09;97215.66;4784821;29;20207;-73
2022/07/23 02:04:26;;;;;;;8.67;6.37;;;;;;;20.69;54.05;97215.25;4801265;29;20214;-73
2022/07/23 02:06:53;;;;;;;6.03;5.43;;;;;;;20.82;53.33;97217.69;4801171;29;20243;-74
2022/07/23 02:09:21;;;;;;;7.93;5.67;;;;;;;20.80;53.58;97215.19;4801055;29;20646;-73
2022/07/23 02:11:48;;;;;;;10.70;5.77;;;;;;;20.74;53.31;97209.59;4801591;29;20207;-71
2022/07/23 02:14:15;;;;;;;7.60;5.83;;;;;;;20.67;54.01;97205.81;4800488;29;20198;-69
2022/07/23 02:16:42;;;;;;;10.10;5.90;;;;;;;20.31;54.79;97214.94;4801366;29;20242;-69
2022/07/23 02:19:11;;;;;;;10.50;6.00;;;;;;;20.08;55.51;97202.78;4800782;29;20774;-70
2022/07/23 02:21:38;;;;;;;13.27;6.67;;;;;;;20.06;55.81;97215.22;4784064;29;20256;-71
2022/07/23 02:24:05;;;;;;;8.40;6.87;;;;;;;20.01;55.88;97220.03;4800964;29;20207;-70
2022/07/23 02:26:34;;;;;;;9.70;6.20;;;;;;;20.03;56.02;97220.75;4784147;29;20747;-70
2022/07/23 02:29:04;;;;;;;9.60;6.43;;;;;;;19.93;56.07;97199.63;4800183;29;20682;-70
2022/07/23 02:31:32;;;;;;;14.40;6.67;;;;;;;19.96;56.28;97201.16;4799058;29;20220;-71
2022/07/23 02:34:00;;;;;;;8.50;6.30;;;;;;;20.02;56.15;97208.56;4800749;29;20210;-72
2022/07/23 02:36:27;;;;;;;8.23;6.40;;;;;;;20.19;55.60;97208.03;4784080;29;20297;-70
2022/07/23 02:38:55;;;;;;;10.77;6.70;;;;;;;20.12;55.93;97220.84;4799588;29;20651;-70
2022/07/23 02:41:23;;;;;;;10.67;7.30;;;;;;;20.04;56.32;97223.25;4784996;29;20233;-70
2022/07/23 02:43:50;;;;;;;8.33;6.50;;;;;;;19.97;56.59;97218.63;4800087;29;20208;-69
2022/07/23 02:46:17;;;;;;;8.90;6.90;;;;;;;19.89;56.36;97213.97;4784810;29;20229;-69
2022/07/23 02:48:45;;;;;;;8.73;6.17;;;;;;;20.03;56.26;97218.13;4798550;29;20203;-70
2022/07/23 02:51:13;;;;;;;11.83;6.47;;;;;;;20.21;55.82;97216.66;4784381;29;20207;-70
2022/07/23 02:53:48;;;;;;;10.37;6.73;;;;;;;20.22;55.83;97213.06;4783995;29;20210;-73
2022/07/23 02:56:15;;;;;;;10.10;6.63;;;;;;;20.19;55.85;97216.78;4799919;29;20214;-70
2022/07/23 02:58:42;;;;;;;9.63;6.53;;;;;;;20.23;55.67;97222.63;4800460;29;20218;-73
2022/07/23 03:01:09;;;;;;;9.93;6.20;;;;;;;20.18;55.87;97220.34;4799570;29;20574;-72
2022/07/23 03:03:36;;;;;;;7.83;6.20;;;;;;;20.07;56.41;97216.91;4784740;29;20669;-70
2022/07/23 03:06:04;;;;;;;9.87;6.17;;;;;;;20.12;56.32;97225.25;4783631;29;20224;-73
2022/07/23 03:08:31;;;;;;;8.60;6.20;;;;;;;20.27;55.81;97224.06;4799170;29;20694;-71
2022/07/23 03:10:58;;;;;;;8.37;5.90;;;;;;;20.30;55.80;97223.78;4800186;29;20217;-70
2022/07/23 03:13:25;;;;;;;8.53;5.87;;;;;;;20.33;55.78;97223.56;4783511;29;20206;-71
2022/07/23 03:15:54;;;;;;;10.77;6.03;;;;;;;20.50;55.24;97232.69;4783976;29;20206;-72
2022/07/23 03:18:21;;;;;;;6.37;5.43;;;;;;;20.54;55.49;97242.00;4799228;29;20325;-71
2022/07/23 03:20:48;;;;;;;8.57;5.60;;;;;;;20.43;55.67;97228.88;4784069;29;20302;-72
2022/07/23 03:23:16;;;;;;;7.40;5.53;;;;;;;20.23;56.38;97223.47;4798220;29;20220;-72
2022/07/23 03:25:43;;;;;;;8.30;5.80;;;;;;;20.30;56.49;97234.31;4784072;29;20277;-73
2022/07/23 03:28:11;;;;;;;5.63;5.00;;;;;;;20.14;56.79;97233.84;4798499;29;20234;-71
2022/07/23 03:30:38;;;;;;;7.77;5.17;;;;;;;20.16;56.19;97245.09;4799760;29;20212;-70
2022/07/23 03:33:05;;;;;;;7.90;5.20;;;;;;;20.05;56.61;97238.06;4784113;29;20337;-72
2022/07/23 03:35:32;;;;;;;5.67;5.00;;;;;;;20.11;56.26;97245.44;4783161;29;20298;-71
2022/07/23 03:38:36;;;;;;;8.00;5.20;;;;;;;20.30;55.97;97236.94;4784168;29;20292;-73
2022/07/23 03:41:03;;;;;;;7.23;4.97;;;;;;;20.51;55.90;97236.97;4783662;29;20213;-71
2022/07/23 03:43:33;;;;;;;8.27;5.00;;;;;;;20.65;55.16;97242.78;4783478;29;20199;-71
2022/07/23 03:45:59;;;;;;;7.97;5.50;;;;;;;20.75;54.47;97235.78;4800179;29;20793;-72
2022/07/23 03:48:26;;;;;;;6.30;4.97;;;;;;;21.05;53.72;97248.22;4783031;29;20215;-71
2022/07/23 03:50:54;;;;;;;9.93;5.10;;;;;;;21.33;52.80;97242.28;4800315;29;20256;-71
2022/07/23 03:53:21;;;;;;;12.13;6.27;;;;;;;21.57;52.06;97248.09;4782855;29;20206;-73
2022/07/23 03:55:48;;;;;;;10.17;6.43;;;;;;;21.80;51.34;97241.63;4783617;29;20213;-72
2022/07/23 03:58:15;;;;;;;8.10;6.07;;;;;;;22.22;50.52;97239.69;4783316;29;20212;-72
2022/07/23 04:00:43;;;;;;;10.20;6.17;;;;;;;22.15;50.20;97230.66;4783272;29;20208;-70
2022/07/23 04:03:10;;;;;;;14.17;7.43;;;;;;;22.35;49.82;97234.97;4783670;29;20205;-71
2022/07/23 04:05:37;;;;;;;10.17;6.90;;;;;;;22.11;50.45;97238.97;4782858;29;20200;-71
2022/07/23 04:08:06;;;;;;;10.03;6.40;;;;;;;21.47;51.71;97201.56;4783805;29;20309;-70
2022/07/23 04:10:37;;;;;;;13.10;6.47;;;;;;;21.78;51.86;97245.41;4782886;29;20216;-70
2022/07/23 04:13:06;;;;;;;10.00;6.23;;;;;;;21.52;52.76;97242.38;4798439;29;20211;-71
2022/07/23 04:15:33;;;;;;;9.60;5.90;;;;;;;21.71;52.97;97242.44;4783456;29;20208;-72
2022/07/23 04:18:00;;;;;;;8.43;6.60;;;;;;;21.81;52.42;97237.19;4783325;29;20629;-71
2022/07/23 04:20:40;;;;;;;10.23;6.67;;;;;;;21.88;52.67;97247.09;4783822;29;20215;-71
2022/07/23 04:23:12;;;;;;;7.07;5.50;;;;;;;22.03;52.58;97246.75;4782870;29;20206;-71
2022/07/23 04:25:40;;;;;;;8.30;6.23;;;;;;;22.03;52.42;97236.19;4768801;29;20217;-70
2022/07/23 04:28:07;;;;;;;7.87;5.40;;;;;;;22.10;52.79;97242.56;4797737;29;20707;-71
2022/07/23 04:30:34;;;;;;;11.57;5.87;;;;;;;22.24;52.68;97250.94;4783283;29;20211;-71
2022/07/23 04:33:05;;;;;;;11.53;5.60;;;;;;;22.28;52.70;97241.78;4783342;29;20204;-75
2022/07/23 04:35:34;;;;;;;10.50;5.90;;;;;;;22.45;52.52;97253.47;4782503;29;20212;-75
2022/07/23 04:38:11;;;;;;;10.47;5.20;;;;;;;22.59;51.94;97242.50;4783719;29;20275;-74
2022/07/23 04:40:38;;;;;;;9.17;5.27;;;;;;;22.70;51.27;97246.81;4782469;29;20552;-75
2022/07/23 04:43:05;;;;;;;7.40;5.07;;;;;;;22.72;50.75;97250.16;4783194;29;20583;-74
2022/07/23 04:45:37;;;;;;;9.83;5.13;;;;;;;22.77;50.04;97247.94;4785211;29;20216;-75
2022/07/23 04:48:06;;;;;;;8.60;5.20;;;;;;;23.11;49.81;97238.56;4785701;29;20242;-73
2022/07/23 04:50:33;;;;;;;10.10;6.37;;;;;;;23.55;48.26;97245.84;4786425;29;20265;-74
2022/07/23 04:53:00;;;;;;;9.57;6.20;;;;;;;23.35;49.08;97245.06;4801653;29;20213;-75
2022/07/23 04:55:27;;;;;;;8.10;6.03;;;;;;;23.17;49.02;97249.41;4788358;29;20202;-73
2022/07/23 04:57:54;;;;;;;7.30;5.60;;;;;;;23.36;49.19;97245.91;4785382;29;20763;-74
2022/07/23 05:00:21;;;;;;;10.73;5.97;;;;;;;23.59;48.64;97249.03;4801283;29;20224;-74
2022/07/23 05:02:48;;;;;;;7.63;6.33;;;;;;;23.84;47.79;97238.63;4785693;29;20272;-73
2022/07/23 05:05:16;;;;;;;8.60;7.33;;;;;;;24.23;46.72;97241.91;4785540;29;20233;-72
2022/07/23 05:07:44;;;;;;;10.40;6.37;;;;;;;24.47;46.44;97238.66;4801024;29;20623;-72
2022/07/23 05:10:11;;;;;;;10.53;6.10;;;;;;;24.53;46.35;97241.53;4785250;29;20244;-70
2022/07/23 05:12:38;;;;;;;8.93;5.83;;;;;;;24.35;46.64;97248.66;4802760;29;20219;-70
2022/07/23 05:15:05;;;;;;;6.90;6.10;;;;;;;24.44;46.69;97238.97;4801563;29;20579;-72
2022/07/23 05:17:33;;;;;;;7.93;5.97;;;;;;;24.76;46.19;97245.44;4785828;29;20804;-71
2022/07/23 05:20:03;;;;;;;12.27;5.90;;;;;;;24.89;45.34;97243.22;4785491;29;20233;-70
2022/07/23 05:22:30;;;;;;;9.30;6.00;;;;;;;25.03;45.65;97244.50;4785066;29;20685;-69
2022/07/23 05:24:57;;;;;;;9.63;5.77;;;;;;;25.19;44.59;97241.94;4800674;29;20297;-71
2022/07/23 05:27:24;;;;;;;7.00;5.47;;;;;;;25.31;44.68;97243.34;4784750;29;20331;-69
2022/07/23 05:29:51;;;;;;;9.13;5.60;;;;;;;25.47;44.08;97238.19;4785829;29;20695;-69
2022/07/23 05:32:18;;;;;;;8.83;5.63;;;;;;;25.63;43.58;97242.75;4784851;29;20209;-70
2022/07/23 05:34:53;;;;;;;8.63;5.17;;;;;;;25.82;43.82;97238.03;4800376;29;20214;-69
2022/07/23 05:37:20;;;;;;;10.83;5.50;;;;;;;26.15;42.56;97232.88;4785237;29;20213;-70
2022/07/23 05:39:47;;;;;;;11.93;5.53;;;;;;;26.54;43.00;97237.41;4784837;29;20213;-70
2022/07/23 05:42:14;;;;;;;9.57;5.37;;;;;;;27.03;42.07;97240.97;4785678;29;20695;-70
2022/07/23 05:44:41;;;;;;;7.77;5.07;;;;;;;27.30;41.56;97235.31;4784490;29;20672;-70
2022/07/23 05:47:08;;;;;;;8.53;6.80;;;;;;;27.60;40.59;97240.91;4801404;29;20695;-70
2022/07/23 05:49:38;;;;;;;6.67;4.97;;;;;;;27.86;40.10;97233.50;4800602;29;20737;-71
2022/07/23 05:52:42;;;;;;;7.77;5.30;;;;;;;27.96;40.24;97239.50;4774299;29;21110;-71
2022/07/23 05:55:35;;;;;;;9.07;4.83;;;;;;;28.11;39.08;97235.06;4765846;29;20212;-71
2022/07/23 05:58:02;;;;;;;7.30;4.77;;;;;;;27.95;38.82;97229.78;4791993;29;20234;-71
2022/07/23 06:00:30;;;;;;;10.60;5.20;;;;;;;28.10;39.76;97236.09;4801922;29;20256;-71
2022/07/23 06:02:58;;;;;;;7.07;4.70;;;;;;;27.88;39.46;97236.84;4801002;29;20221;-69
2022/07/23 06:05:27;;;;;;;6.03;4.70;;;;;;;27.86;40.09;97231.66;4799191;29;20203;-70
2022/07/23 06:07:56;;;;;;;12.70;5.80;;;;;;;28.11;39.05;97235.06;4800070;29;20227;-71
2022/07/23 06:10:24;;;;;;;9.47;5.23;;;;;;;28.01;39.21;97229.13;4783920;29;20271;-70
2022/07/23 06:12:51;;;;;;;8.03;5.10;;;;;;;28.05;38.68;97230.44;4800900;29;20670;-71
2022/07/23 06:15:18;;;;;;;10.70;5.00;;;;;;;27.82;39.41;97238.31;4800122;29;20222;-71
2022/07/23 06:17:45;;;;;;;8.73;5.03;;;;;;;27.99;39.48;97231.97;4784475;29;20242;-71
2022/07/23 06:20:12;;;;;;;6.80;5.30;;;;;;;28.32;38.85;97229.97;4799610;29;20210;-71
2022/07/23 06:22:41;;;;;;;11.67;6.00;;;;;;;28.63;38.13;97222.81;4783853;29;20194;-71
2022/07/23 06:25:08;;;;;;;9.77;4.67;;;;;;;29.00;37.31;97234.53;4801014;29;20214;-71
2022/07/23 06:27:47;;;;;;;12.27;5.30;;;;;;;29.22;36.00;97225.69;4784732;29;20695;-71
2022/07/23 06:30:15;;;;;;;8.07;4.53;;;;;;;29.45;35.83;97226.44;4800059;29;20207;-71
2022/07/23 06:32:47;;;;;;;6.57;4.27;;;;;;;29.52;33.67;97214.84;4800009;29;20247;-72
2022/07/23 06:35:16;;;;;;;7.27;4.77;;;;;;;29.53;34.82;97226.38;4799338;29;20571;-75
2022/07/23 06:37:46;;;;;;;8.97;4.60;;;;;;;29.26;34.40;97226.97;4795316;29;20307;-71
2022/07/23 06:40:14;;;;;;;9.27;4.90;;;;;;;29.10;34.87;97221.75;4797124;29;20206;-72
2022/07/23 06:42:42;;;;;;;9.73;5.77;;;;;;;29.23;35.39;97225.50;4800502;29;20226;-72
2022/07/23 06:45:15;;;;;;;9.13;5.63;;;;;;;29.53;35.80;97226.38;4783416;29;20290;-71
2022/07/23 06:47:42;;;;;;;9.27;5.67;;;;;;;29.77;35.04;97220.78;4783933;29;20339;-70
2022/07/23 06:50:10;;;;;;;8.47;4.43;;;;;;;30.04;36.10;97219.25;4783029;29;20257;-72
2022/07/23 06:52:37;;;;;;;10.40;5.07;;;;;;;30.09;34.91;97215.00;4799388;29;20203;-72
2022/07/23 06:55:09;;;;;;;8.73;5.00;;;;;;;30.22;33.91;97217.00;4799951;29;20318;-73
2022/07/23 06:57:37;;;;;;;8.63;4.60;;;;;;;30.00;35.20;97221.50;4799221;29;20282;-72
2022/07/23 07:00:06;;;;;;;9.20;4.77;;;;;;;29.87;34.65;97217.81;4771369;29;20614;-73
2022/07/23 07:02:33;;;;;;;5.97;4.73;;;;;;;29.86;35.31;97218.84;4765108;29;20203;-72
2022/07/23 07:05:01;;;;;;;10.27;4.47;;;;;;;30.01;35.42;97212.44;4765661;29;20214;-72
2022/07/23 07:07:33;;;;;;;7.70;4.73;;;;;;;30.34;34.73;97205.69;4789906;29;20246;-71
2022/07/23 07:10:00;;;;;;;8.57;5.80;;;;;;;30.58;35.03;97217.03;4800113;29;20244;-72
2022/07/23 07:12:28;;;;;;;4.90;4.40;;;;;;;30.49;34.74;97209.13;4799769;29;20210;-71
2022/07/23 07:14:56;;;;;;;8.53;4.77;;;;;;;30.54;34.46;97205.91;4798452;29;20229;-72
2022/07/23 07:17:23;;;;;;;8.70;4.83;;;;;;;30.64;35.08;97222.44;4799326;29;20235;-70
2022/07/23 07:19:53;;;;;;;8.50;5.37;;;;;;;30.86;34.33;97209.91;4797875;29;20207;-72
2022/07/23 07:22:30;;;;;;;7.67;5.00;;;;;;;31.02;33.42;97212.31;4798731;29;20214;-72
2022/07/23 07:25:06;;;;;;;12.32;5.10;;;;;;;31.16;32.99;97200.72;4796038;29;20687;-74
2022/07/23 07:27:45;;;;;;;7.63;5.10;;;;;;;31.21;33.14;97163.47;4796600;29;20234;-72
2022/07/23 07:30:12;;;;;;;12.48;6.10;;;;;;;31.46;33.64;97179.94;4798773;29;20205;-74
2022/07/23 07:32:45;;;;;;;9.75;4.97;;;;;;;31.01;32.37;97063.50;4796649;29;20260;-73
2022/07/23 07:35:23;;;;;;;8.55;5.38;;;;;;;32.11;32.03;97188.31;4798849;29;20218;-74
2022/07/23 07:37:49;;;;;;;9.15;5.18;;;;;;;32.27;33.05;97192.50;4798931;29;20209;-72
2022/07/23 07:40:16;;;;;;;8.98;5.70;;;;;;;32.41;31.38;97186.16;4799452;29;20238;-71
2022/07/23 07:42:45;;;;;;;7.55;4.60;;;;;;;32.52;31.26;97182.91;4798352;29;20218;-72
2022/07/23 07:45:12;;;;;;;9.73;4.95;;;;;;;32.62;31.50;97178.78;4799047;29;20222;-72
2022/07/23 07:47:39;;;;;;;13.68;6.07;;;;;;;32.55;32.07;97169.06;4799152;29;20627;-71
2022/07/23 07:50:07;;;;;;;11.80;5.50;;;;;;;32.68;31.18;97177.97;4798491;29;20681;-73
2022/07/23 07:52:38;;;;;;;12.35;4.78;;;;;;;32.89;31.04;97182.34;4799614;29;20271;-73
2022/07/23 07:55:07;;;;;;;7.13;5.07;;;;;;;32.99;30.87;97174.72;4798394;29;20214;-71
2022/07/23 07:57:36;;;;;;;7.82;4.38;;;;;;;33.05;30.64;97173.91;4799466;29;20257;-71
2022/07/23 08:00:06;;;;;;;9.40;4.90;;;;;;;33.10;30.66;97174.06;4799086;29;20218;-71
2022/07/23 08:02:51;;;;;;;8.30;4.57;;;;;;;33.19;30.25;97172.84;4798756;29;20210;-71
2022/07/23 08:05:29;;;;;;;9.57;4.55;;;;;;;33.21;30.49;97170.78;4799462;29;20283;-73
2022/07/23 08:07:58;;;;;;;5.50;4.63;;;;;;;33.29;29.92;97170.56;4798268;29;20238;-73
2022/07/23 08:10:26;;;;;;;5.60;4.03;;;;;;;33.37;30.51;97170.34;4799310;29;20706;-72
2022/07/23 08:13:47;;;;;;;10.93;6.90;;;;;;;33.51;29.47;97177.34;4797859;29;20675;-72
2022/07/23 08:17:08;;;;;;;6.88;4.55;;;;;;;33.63;29.46;97174.88;4797502;29;20248;-73
2022/07/23 08:20:28;;;;;;;9.30;5.80;;;;;;;33.71;29.26;97177.31;4794443;29;20203;-73
2022/07/23 08:23:49;;;;;;;7.75;5.10;;;;;;;33.73;28.63;97163.66;4800869;29;20203;-73
2022/07/23 08:27:09;;;;;;;6.68;4.88;;;;;;;33.46;28.69;97136.84;4802666;29;20209;-73
2022/07/23 08:30:30;;;;;;;8.18;5.25;;;;;;;33.42;29.86;97135.63;4801003;29;20203;-73
2022/07/23 08:33:54;;;;;;;10.73;4.70;;;;;;;33.72;28.73;97165.50;4801034;29;20207;-73
2022/07/23 08:37:15;;;;;;;7.85;5.60;;;;;;;33.85;28.15;97165.47;4801264;29;20207;-72
2022/07/23 08:39:51;;;;;;;9.40;5.00;;;;;;;33.96;28.19;97161.31;4802371;29;20700;-73
2022/07/23 08:42:19;;;;;;;7.15;5.13;;;;;;;34.05;28.23;97158.19;4801295;29;20206;-72
2022/07/23 08:44:46;;;;;;;7.50;4.80;;;;;;;34.06;27.65;97153.63;4802770;29;20210;-71
2022/07/23 08:47:15;;;;;;;9.32;5.22;;;;;;;34.13;27.70;97157.94;4801570;29;20206;-72
2022/07/23 08:49:42;;;;;;;9.00;5.15;;;;;;;34.27;27.25;97166.78;4800088;29;20207;-72
2022/07/23 08:52:09;;;;;;;6.68;4.80;;;;;;;33.79;27.27;97158.28;4801695;29;20692;-72
2022/07/23 08:54:37;;;;;;;24.40;11.80;;;;;;;33.94;26.93;97145.41;4800974;29;20652;-72
2022/07/23 08:57:04;;;;;;;7.47;4.95;;;;;;;34.00;26.60;97152.63;4801633;29;20214;-72
2022/07/23 08:59:32;;;;;;;8.32;5.43;;;;;;;34.29;26.87;97146.66;4797993;29;20222;-71
2022/07/23 09:02:00;;;;;;;10.10;5.25;;;;;;;34.42;26.96;97157.34;4801372;29;20291;-72
2022/07/23 09:04:27;;;;;;;8.20;4.93;;;;;;;34.53;26.90;97150.50;4800658;29;20220;-73
2022/07/23 09:06:55;;;;;;;8.45;5.13;;;;;;;34.58;26.29;97139.91;4786860;29;20226;-73
2022/07/23 09:09:23;;;;;;;9.18;5.30;;;;;;;34.66;25.25;97139.66;4783839;29;20249;-74
2022/07/23 09:12:03;;;;;;;9.27;4.60;;;;;;;34.50;24.51;97156.28;4783030;29;20309;-73
2022/07/23 09:14:41;;;;;;;10.90;5.25;;;;;;;34.12;24.51;97153.59;4784220;29;20603;-71
2022/07/23 09:17:16;;;;;;;5.28;4.13;;;;;;;34.10;23.04;97144.09;4783077;29;20235;-72
2022/07/23 09:19:45;;;;;;;8.70;4.95;;;;;;;34.21;23.45;97143.44;4783408;29;20227;-72
2022/07/23 09:22:26;;;;;;;13.90;5.95;;;;;;;34.50;23.67;97139.34;4783297;29;20235;-73
2022/07/23 09:25:16;;;;;;;12.30;6.30;;;;;;;34.80;23.49;97140.34;4782695;29;20999;-74
2022/07/23 09:27:52;;;;;;;9.55;4.43;;;;;;;34.90;23.26;97136.13;4782952;29;20316;-73
2022/07/23 09:30:23;;;;;;;8.68;4.60;;;;;;;34.71;23.06;97145.19;4781673;29;20219;-72
2022/07/23 09:33:15;;;;;;;13.73;5.38;;;;;;;34.87;22.76;97147.31;4783277;29;20215;-71
2022/07/23 09:35:56;;;;;;;11.70;5.53;;;;;;;35.00;22.51;97125.72;4783654;29;20290;-72
2022/07/23 09:38:24;;;;;;;9.65;4.63;;;;;;;35.06;22.24;97132.91;4782532;29;20214;-72
2022/07/23 09:41:07;;;;;;;8.27;4.75;;;;;;;35.04;22.04;97129.59;4783665;29;20753;-71
2022/07/23 09:43:34;;;;;;;7.43;4.30;;;;;;;34.90;22.15;97127.22;4783285;29;20270;-72
2022/07/23 09:46:27;;;;;;;9.18;4.70;;;;;;;34.91;22.22;97127.00;4781790;29;20211;-72
2022/07/23 09:48:56;;;;;;;9.00;4.70;;;;;;;34.96;22.21;97126.34;4783452;29;20354;-71
2022/07/23 09:51:36;;;;;;;10.98;4.63;;;;;;;34.90;23.03;97136.13;4782298;29;20200;-72
2022/07/23 09:54:04;;;;;;;9.20;4.55;;;;;;;34.95;22.47;97122.00;4783107;29;20579;-72
2022/07/23 09:56:33;;;;;;;9.18;4.78;;;;;;;34.90;22.19;97133.44;4782919;29;20202;-73
2022/07/23 09:59:06;;;;;;;8.02;5.05;;;;;;;35.03;22.15;97117.19;4782365;29;20219;-72
2022/07/23 10:01:33;;;;;;;9.30;4.85;;;;;;;35.16;22.00;97130.53;4788463;29;20750;-72
2022/07/23 10:04:01;;;;;;;7.68;4.97;;;;;;;35.24;21.94;97129.44;4799988;29;20703;-72
2022/07/23 10:06:53;;;;;;;8.13;4.38;;;;;;;35.28;21.57;97127.09;4800891;29;20259;-72
2022/07/23 10:09:40;;;;;;;12.50;4.85;;;;;;;35.29;22.17;97112.56;4800801;29;20242;-74
2022/07/23 10:15:01;;;;;;;11.35;4.60;;;;;;;35.51;21.54;97127.31;4799721;29;20207;-74
2022/07/23 10:17:29;;;;;;;10.23;4.65;;;;;;;34.98;21.69;97127.81;4800142;29;20320;-71
2022/07/23 10:19:56;;;;;;;8.52;4.45;;;;;;;35.00;22.25;97120.31;4801048;29;20211;-72
2022/07/23 10:22:36;;;;;;;7.57;4.50;;;;;;;34.93;22.46;97121.41;4800637;29;20215;-72
2022/07/23 10:25:15;;;;;;;9.07;5.00;;;;;;;35.30;21.79;97114.25;4800106;29;20271;-73
2022/07/23 10:28:13;;;;;;;7.22;4.97;;;;;;;35.58;21.86;97111.88;4800315;29;20656;-73
2022/07/23 10:31:02;;;;;;;9.07;4.82;;;;;;;35.73;21.41;97104.22;4795981;29;20290;-74
2022/07/23 10:33:53;;;;;;;10.70;4.60;;;;;;;35.85;21.22;97105.09;4790758;29;20202;-75
2022/07/23 10:36:29;;;;;;;8.38;4.55;;;;;;;35.83;21.52;97102.66;4800638;29;20252;-73
2022/07/23 10:39:15;;;;;;;6.65;4.78;;;;;;;35.86;21.86;97112.16;4799459;29;20217;-71
2022/07/23 10:41:42;;;;;;;10.60;5.00;;;;;;;35.75;21.92;97104.81;4799471;29;20667;-74
2022/07/23 10:44:16;;;;;;;8.77;4.65;;;;;;;35.60;22.57;97099.81;4800074;29;20756;-72
2022/07/23 10:47:13;;;;;;;8.43;4.80;;;;;;;35.41;22.89;97091.91;4799765;29;20301;-73
2022/07/23 10:49:40;;;;;;;11.52;5.65;;;;;;;35.26;22.57;97086.09;4800662;29;20238;-72
2022/07/23 10:52:13;;;;;;;11.30;4.85;;;;;;;35.45;21.28;97098.53;4799683;29;20614;-73
2022/07/23 10:54:50;;;;;;;11.77;5.00;;;;;;;35.71;20.96;97084.75;4799742;29;20681;-71
2022/07/23 10:57:19;;;;;;;10.75;4.82;;;;;;;35.86;21.01;97082.50;4800463;29;20214;-74
2022/07/23 11:00:13;;;;;;;9.32;4.45;;;;;;;36.03;22.06;97078.13;4798054;29;20206;-72
2022/07/23 11:02:43;;;;;;;8.82;4.75;;;;;;;36.02;21.81;97086.47;4799546;29;20875;-72
2022/07/23 11:05:13;;;;;;;12.38;5.70;;;;;;;36.00;20.95;97081.31;4799387;29;20225;-74
2022/07/23 11:08:05;;;;;;;9.32;4.47;;;;;;;36.06;21.02;97074.16;4785310;29;20755;-73
2022/07/23 11:10:38;;;;;;;11.18;4.50;;;;;;;36.19;21.84;97072.09;4784937;29;20203;-73
2022/07/23 11:13:42;;;;;;;10.13;4.72;;;;;;;36.24;21.86;97072.22;4786521;29;20203;-74
2022/07/23 11:16:18;;;;;;;7.15;4.45;;;;;;;35.88;21.62;97065.03;4745504;29;20242;-73
2022/07/23 11:18:47;;;;;;;9.93;4.60;;;;;;;36.11;21.36;97069.72;4782102;30;20292;-72
2022/07/23 11:21:20;;;;;;;8.85;4.65;;;;;;;36.20;21.58;97057.56;4781019;29;20207;-72
2022/07/23 11:23:57;;;;;;;13.43;5.50;;;;;;;36.21;22.17;97061.88;4782526;29;20227;-73
2022/07/23 11:26:44;;;;;;;7.65;4.50;;;;;;;36.21;21.45;97058.38;4797176;29;20237;-72
2022/07/23 11:32:22;;;;;;;14.57;5.60;;;;;;;36.30;20.96;97068.59;4799415;29;20218;-72
2022/07/23 11:34:53;;;;;;;9.63;4.55;;;;;;;36.25;21.25;97054.19;4797782;29;20216;-72
2022/07/23 11:37:32;;;;;;;14.63;5.35;;;;;;;36.39;21.72;97055.59;4797938;29;20219;-73
2022/07/23 11:40:00;;;;;;;9.75;5.50;;;;;;;36.54;21.80;97056.03;4786881;29;20244;-73
2022/07/23 11:42:27;;;;;;;10.15;5.70;;;;;;;36.34;21.16;97055.47;4799367;29;20214;-73
2022/07/23 11:44:57;;;;;;;15.82;5.18;;;;;;;36.36;21.77;97051.50;4800165;29;20642;-73
2022/07/23 11:48:04;;;;;;;11.40;5.45;;;;;;;36.30;22.00;97057.81;4798931;29;20272;-73
2022/07/23 11:51:26;;;;;;;8.15;4.90;;;;;;;36.23;21.38;97046.28;4796624;29;20283;-74
2022/07/23 11:54:47;;;;;;;8.52;4.43;;;;;;;36.38;21.96;97046.69;4801027;29;20222;-75
2022/07/23 11:58:12;;;;;;;11.93;5.47;;;;;;;36.45;21.95;97039.34;4803071;29;20202;-75
2022/07/23 12:01:32;;;;;;;9.93;4.97;;;;;;;36.06;21.46;97050.72;4802317;29;20206;-75
2022/07/23 12:04:39;;;;;;;9.40;5.07;;;;;;;35.78;22.67;97035.09;4801774;29;20202;-74